Wednesday, April 25, 2018, 12:22 PM GMT
Back to Local

CWER, Ile D'Orleans Automated Reporting Station

Location: , , Canada Lat: 47
Local Time: 12:22 PM GMT (12:22 GMT) Lon: -70.817
Time Zone: GMT Elev: 16 ft

Show me the last for .
Show Coded

Time T Td Feel RH Dir Speed Gust Alt SLP Vis Weather Sky Remarks
2018-04-25 12:00 - - - 0 240° 2 - - - 0 None
2018-04-25 11:00 - - - 0 220° 8 - - - 0 None
2018-04-25 10:00 - - - 0 280° 2 - - - 0 None
2018-04-25 09:00 - - - 0 310° 1 - - - 0 None
2018-04-25 08:00 - - - 0 260° 1 - - - 0 None
2018-04-25 07:00 - - - 0 - Calm - - - 0 None
2018-04-25 06:00 - - - 0 120° 1 - - - 0 None
2018-04-25 05:00 - - - 0 220° 3 - - - 0 None
2018-04-25 04:00 - - - 0 230° 1 - - - 0 None
2018-04-25 03:00 - - - 0 240° 1 - - - 0 None
2018-04-25 02:00 - - - 0 230° 5 - - - 0 None
2018-04-25 01:00 - - - 0 230° 5 - - - 0 None
2018-04-25 00:00 - - - 0 220° 7 - - - 0 None
2018-04-24 23:00 - - - 0 230° 8 - - - 0 None
2018-04-24 22:00 - - - 0 240° 7 - - - 0 None
2018-04-24 21:00 - - - 0 240° 12 - - - 0 None
2018-04-24 20:00 - - - 0 220° 13 - - - 0 None
2018-04-24 19:00 - - - 0 220° 14 - - - 0 None
2018-04-24 18:00 - - - 0 220° 15 - - - 0 Peak wind: 19 mph (17 kts) from 230° at 52 min
2018-04-24 17:00 - - - 0 220° 16 - - - 0 Peak wind: 21 mph (19 kts) from 220° at 19 min
2018-04-24 16:00 - - - 0 220° 18 - - - 0 Peak wind: 24 mph (21 kts) from 210° at 18 min
2018-04-24 15:00 - - - 0 210° 21 - - - 0 Peak wind: 23 mph (20 kts) from 220° at 37 min
2018-04-24 14:00 - - - 0 220° 20 - - - 0 Peak wind: 23 mph (20 kts) from 220° at 45 min
2018-04-24 13:00 - - - 0 220° 17 - - - 0 Peak wind: 24 mph (21 kts) from 220° at 21 min

Support USWX by starting your Amazon purchase here.